createdAt,value
2018-07-25T00:02:13.122Z,95824.21
2018-07-25T00:04:43.523Z,95824.66
2018-07-25T00:07:13.983Z,95823.78
2018-07-25T00:09:44.402Z,95822.08
2018-07-25T00:12:14.981Z,95819.33
2018-07-25T00:14:45.359Z,95826.75
2018-07-25T00:17:15.819Z,95828.30
2018-07-25T00:19:46.220Z,95829.69
2018-07-25T00:22:16.621Z,95826.16
2018-07-25T00:24:47.195Z,95831.09
2018-07-25T00:27:17.533Z,95834.03
2018-07-25T00:29:47.874Z,95826.75
2018-07-25T00:32:18.355Z,95820.72
2018-07-25T00:34:48.737Z,95825.52
2018-07-25T00:37:19.213Z,95830.32
2018-07-25T00:39:49.797Z,95826.76
2018-07-25T00:42:21.036Z,95828.95
2018-07-25T00:44:51.413Z,95830.67
2018-07-25T00:47:21.815Z,95830.84
2018-07-25T00:49:52.413Z,95829.13
2018-07-25T00:52:23.191Z,95833.91
2018-07-25T00:54:53.550Z,95834.48
2018-07-25T00:57:23.943Z,95833.69
2018-07-25T00:59:54.423Z,95838.63
2018-07-25T01:02:24.582Z,95839.56
2018-07-25T01:04:55.014Z,95842.36
2018-07-25T01:07:25.426Z,95843.50
2018-07-25T01:09:55.818Z,95839.63
2018-07-25T01:12:26.548Z,95842.37
2018-07-25T01:14:57.307Z,95835.75
2018-07-25T01:17:27.728Z,95838.86
2018-07-25T01:19:58.123Z,95843.97
2018-07-25T01:22:28.596Z,95842.58
2018-07-25T01:24:58.961Z,95848.12
2018-07-25T01:27:29.368Z,95850.59
2018-07-25T01:30:00.061Z,95849.19
2018-07-25T01:32:30.558Z,95852.73
2018-07-25T01:35:00.976Z,95851.83
2018-07-25T01:37:31.373Z,95854.13
2018-07-25T01:40:01.831Z,95857.38
2018-07-25T01:42:32.267Z,95856.59
2018-07-25T01:45:02.920Z,95852.59
2018-07-25T01:47:33.388Z,95853.38
2018-07-25T01:50:03.827Z,95854.15
2018-07-25T01:52:34.219Z,95853.02
2018-07-25T01:55:05.819Z,95859.34
2018-07-25T01:57:36.287Z,95858.25
2018-07-25T02:00:07.096Z,95862.59
2018-07-25T02:02:37.821Z,95858.88
2018-07-25T02:05:08.240Z,95863.63
2018-07-25T02:07:38.635Z,95854.85
2018-07-25T02:10:09.087Z,95856.65
2018-07-25T02:12:39.472Z,95851.80
2018-07-25T02:15:09.876Z,95855.45
2018-07-25T02:17:40.277Z,95864.55
2018-07-25T02:20:11.018Z,95868.66
2018-07-25T02:22:41.446Z,95868.63
2018-07-25T02:25:11.854Z,95865.98
2018-07-25T02:27:42.322Z,95866.42
2018-07-25T02:30:12.735Z,95874.11
2018-07-25T02:32:43.356Z,95870.44
2018-07-25T02:35:13.732Z,95868.02
2018-07-25T02:37:44.156Z,95871.48
2018-07-25T02:40:14.611Z,95874.56
2018-07-25T02:42:45.335Z,95882.08
2018-07-25T02:45:15.846Z,95879.98
2018-07-25T02:47:46.583Z,95881.38
2018-07-25T02:50:16.930Z,95882.50
2018-07-25T02:52:47.327Z,95884.31
2018-07-25T02:55:18.158Z,95880.75
2018-07-25T02:58:28.350Z,95886.28
2018-07-25T03:00:58.752Z,95887.66
2018-07-25T03:03:29.214Z,95885.26
2018-07-25T03:05:59.983Z,95885.45
2018-07-25T03:08:30.366Z,95885.53
2018-07-25T03:11:00.986Z,95886.63
2018-07-25T03:13:31.364Z,95890.13
2018-07-25T03:16:04.806Z,95891.36
2018-07-25T03:18:35.668Z,95890.69
2018-07-25T03:21:06.340Z,95889.19
2018-07-25T03:23:37.234Z,95895.91
2018-07-25T03:26:07.656Z,95895.13
2018-07-25T03:28:38.102Z,95893.45
2018-07-25T03:31:08.819Z,95900.22
2018-07-25T03:33:39.309Z,95907.38
2018-07-25T03:36:10.075Z,95902.25
2018-07-25T03:38:40.612Z,95902.64
2018-07-25T03:41:11.040Z,95901.63
2018-07-25T03:43:41.532Z,95898.19
2018-07-25T03:46:11.988Z,95903.25
2018-07-25T03:48:43.354Z,95901.95
2018-07-25T03:51:13.767Z,95900.56
2018-07-25T03:53:44.234Z,95912.31
2018-07-25T03:56:14.581Z,95914.37
2018-07-25T03:58:44.978Z,95916.78
2018-07-25T04:01:15.534Z,95914.86
2018-07-25T04:03:46.291Z,95916.05
2018-07-25T04:06:16.714Z,95916.09
2018-07-25T04:08:47.310Z,95916.83
2018-07-25T04:11:17.713Z,95920.92
2018-07-25T04:13:48.400Z,95923.88
2018-07-25T04:16:18.765Z,95928.61
2018-07-25T04:18:49.243Z,95924.66
2018-07-25T04:21:19.669Z,95932.39
2018-07-25T04:23:50.144Z,95936.19
2018-07-25T04:26:20.675Z,95942.02
2018-07-25T04:28:51.471Z,95942.03
2018-07-25T04:31:21.901Z,95943.30
2018-07-25T04:33:52.822Z,95945.59
2018-07-25T04:36:23.163Z,95946.33
2018-07-25T04:38:53.672Z,95951.59
2018-07-25T04:41:24.055Z,95951.61
2018-07-25T04:43:54.564Z,95952.58
2018-07-25T04:46:25.177Z,95952.16
2018-07-25T04:48:55.700Z,95948.60
2018-07-25T04:51:26.068Z,95953.98
2018-07-25T04:53:56.518Z,95955.30
2018-07-25T04:56:26.944Z,95953.75
2018-07-25T04:58:57.538Z,95953.28
2018-07-25T05:01:27.978Z,95954.42
2018-07-25T05:03:58.418Z,95950.58
2018-07-25T05:06:28.638Z,95958.98
2018-07-25T05:08:59.305Z,95958.91
2018-07-25T05:11:29.390Z,95953.41
2018-07-25T05:13:59.950Z,95957.50
2018-07-25T05:16:30.404Z,95952.47
2018-07-25T05:19:00.895Z,95955.48
2018-07-25T05:21:31.212Z,95963.05
2018-07-25T05:24:01.534Z,95963.86
2018-07-25T05:26:31.838Z,95969.06
2018-07-25T05:29:01.931Z,95965.16
2018-07-25T05:31:32.015Z,95971.70
2018-07-25T05:34:02.289Z,95968.22
2018-07-25T05:36:32.017Z,95970.36
2018-07-25T05:39:02.087Z,95967.88
2018-07-25T05:41:32.138Z,95971.02
2018-07-25T05:44:02.220Z,95974.51
2018-07-25T05:46:32.327Z,95977.44
2018-07-25T05:49:02.451Z,95977.83
2018-07-25T05:51:32.709Z,95980.59
2018-07-25T05:54:02.865Z,95983.88
2018-07-25T05:56:32.978Z,95986.23
2018-07-25T05:59:03.078Z,95989.20
2018-07-25T06:01:33.169Z,95989.00
2018-07-25T06:04:03.239Z,95990.69
2018-07-25T06:06:33.295Z,95985.06
2018-07-25T06:09:03.854Z,95992.94
2018-07-25T06:11:33.599Z,95993.45
2018-07-25T06:14:03.671Z,95995.77
2018-07-25T06:16:33.747Z,95986.53
2018-07-25T06:19:03.921Z,95988.98
2018-07-25T06:21:34.333Z,95992.28
2018-07-25T06:24:04.867Z,95985.56
2018-07-25T06:26:35.204Z,95989.61
2018-07-25T06:29:05.649Z,95991.31
2018-07-25T06:31:36.352Z,95995.81
2018-07-25T06:34:07.290Z,96002.03
2018-07-25T06:36:38.238Z,96001.80
2018-07-25T06:39:12.801Z,95998.44
2018-07-25T06:41:43.141Z,96003.91
2018-07-25T06:44:13.519Z,96007.66
2018-07-25T06:46:43.925Z,96008.95
2018-07-25T06:49:14.595Z,96006.22
2018-07-25T06:51:44.949Z,96011.15
2018-07-25T06:54:15.311Z,96009.86
2018-07-25T06:56:45.696Z,96012.75
2018-07-25T06:59:16.070Z,96000.88
2018-07-25T07:01:46.429Z,96004.20
2018-07-25T07:04:16.791Z,96007.02
2018-07-25T07:06:47.264Z,96007.84
2018-07-25T07:09:17.766Z,96008.01
2018-07-25T07:11:48.131Z,96011.41
2018-07-25T07:14:18.493Z,96017.25
2018-07-25T07:16:49.588Z,96011.34
2018-07-25T07:19:19.935Z,96012.80
2018-07-25T07:21:50.327Z,96011.50
2018-07-25T07:24:21.062Z,96012.85
2018-07-25T07:26:51.442Z,96010.05
2018-07-25T07:29:22.379Z,96013.95
2018-07-25T07:31:52.760Z,96013.47
2018-07-25T07:34:23.200Z,96008.41
2018-07-25T07:36:53.536Z,96007.66
2018-07-25T07:39:24.181Z,96012.54
2018-07-25T07:41:54.521Z,96014.60
2018-07-25T07:44:25.292Z,96011.57
2018-07-25T07:46:55.715Z,96013.09
2018-07-25T07:49:26.461Z,96013.20
2018-07-25T07:51:56.798Z,96017.09
2018-07-25T07:54:27.123Z,96016.52
2018-07-25T07:56:57.481Z,96019.74
2018-07-25T07:59:27.919Z,96016.45
2018-07-25T08:01:58.493Z,96020.69
2018-07-25T08:04:28.907Z,96023.84
2018-07-25T08:06:59.339Z,96022.79
2018-07-25T08:09:29.651Z,96025.09
2018-07-25T08:12:00.012Z,96025.86
2018-07-25T08:14:30.497Z,96028.14
2018-07-25T08:17:01.632Z,96033.76
2018-07-25T08:19:32.061Z,96030.58
2018-07-25T08:22:02.752Z,96025.33
2018-07-25T08:24:33.266Z,96028.14
2018-07-25T08:27:03.726Z,96033.23
2018-07-25T08:29:34.158Z,96023.93
2018-07-25T08:32:04.609Z,96023.94
2018-07-25T08:34:35.258Z,96025.31
2018-07-25T08:37:06.292Z,96026.03
2018-07-25T08:39:36.626Z,96022.42
2018-07-25T08:42:07.230Z,96023.30
2018-07-25T08:44:37.611Z,96020.58
2018-07-25T08:47:08.066Z,96021.02
2018-07-25T08:49:38.558Z,96021.25
2018-07-25T08:52:08.975Z,96024.58
2018-07-25T08:54:39.364Z,96026.75
2018-07-25T08:57:09.445Z,96023.23
2018-07-25T08:59:39.830Z,96029.55
2018-07-25T09:02:10.598Z,96017.81
2018-07-25T09:04:41.550Z,96012.34
2018-07-25T09:07:12.117Z,96024.39
2018-07-25T09:09:42.581Z,96017.47
2018-07-25T09:12:13.081Z,96020.73
2018-07-25T09:14:43.959Z,96016.43
2018-07-25T09:17:14.286Z,96009.64
2018-07-25T09:19:44.620Z,96022.42
2018-07-25T09:22:15.827Z,96010.43
2018-07-25T09:24:46.182Z,96015.64
2018-07-25T09:27:16.545Z,96014.45
2018-07-25T09:29:46.859Z,96007.72
2018-07-25T09:32:16.952Z,96009.22
2018-07-25T09:34:47.444Z,96008.64
2018-07-25T09:37:18.366Z,96014.80
2018-07-25T09:39:48.447Z,96009.23
2018-07-25T09:42:18.935Z,96012.19
2018-07-25T09:44:49.181Z,96011.38
2018-07-25T09:47:19.466Z,96011.97
2018-07-25T09:49:49.660Z,96009.51
2018-07-25T09:52:19.901Z,95999.16
2018-07-25T09:54:50.175Z,96006.84
2018-07-25T09:57:20.407Z,96001.50
2018-07-25T09:59:51.059Z,96000.58
2018-07-25T10:02:21.484Z,95997.24
2018-07-25T10:04:51.856Z,95988.78
2018-07-25T10:07:22.117Z,95990.13
2018-07-25T10:09:52.738Z,95992.63
2018-07-25T10:12:23.004Z,96000.49
2018-07-25T10:14:53.665Z,95995.53
2018-07-25T10:17:24.037Z,95992.65
2018-07-25T10:19:54.371Z,95982.02
2018-07-25T10:22:24.704Z,95982.61
2018-07-25T10:24:55.049Z,95982.45
2018-07-25T10:27:25.499Z,95981.45
2018-07-25T10:29:56.059Z,95979.47
2018-07-25T10:32:26.327Z,95975.89
2018-07-25T10:34:56.415Z,95977.14
2018-07-25T10:37:26.890Z,95990.92
2018-07-25T10:39:57.341Z,95978.25
2018-07-25T10:42:27.727Z,95971.69
2018-07-25T10:44:57.969Z,95969.20
2018-07-25T10:47:28.513Z,95964.44
2018-07-25T10:49:58.587Z,95965.70
2018-07-25T10:52:28.674Z,95953.55
2018-07-25T10:54:58.910Z,95954.41
2018-07-25T10:57:28.982Z,95952.39
2018-07-25T10:59:59.578Z,95949.34
2018-07-25T11:02:29.869Z,95951.75
2018-07-25T11:05:01.083Z,95952.56
2018-07-25T11:07:31.508Z,95949.30
2018-07-25T11:10:01.763Z,95955.31
2018-07-25T11:12:31.817Z,95941.89
2018-07-25T11:15:01.940Z,95964.56
2018-07-25T11:17:32.299Z,95935.05
2018-07-25T11:20:03.031Z,95932.85
2018-07-25T11:22:33.801Z,95939.67
2018-07-25T11:25:04.187Z,95941.80
2018-07-25T11:27:34.403Z,95944.51
2018-07-25T11:30:05.171Z,95934.52
2018-07-25T11:32:35.547Z,95937.53
2018-07-25T11:35:05.964Z,95932.00
2018-07-25T11:37:35.969Z,95929.40
2018-07-25T11:40:06.933Z,95920.24
2018-07-25T11:42:37.295Z,95925.05
2018-07-25T11:45:07.485Z,95920.91
2018-07-25T11:47:37.541Z,95938.89
2018-07-25T11:50:07.720Z,95917.70
2018-07-25T11:52:37.950Z,95921.29
2018-07-25T11:55:08.079Z,95914.56
2018-07-25T11:57:38.100Z,95925.29
2018-07-25T12:00:08.935Z,95916.20
2018-07-25T12:02:38.986Z,95912.85
2018-07-25T12:05:09.080Z,95916.36
2018-07-25T12:07:39.253Z,95906.86
2018-07-25T12:10:09.804Z,95910.12
2018-07-25T12:12:40.093Z,95916.25
2018-07-25T12:15:10.769Z,95908.22
2018-07-25T12:17:41.136Z,95899.50
2018-07-25T12:20:11.598Z,95919.02
2018-07-25T12:22:41.852Z,95906.89
2018-07-25T12:25:12.126Z,95904.53
2018-07-25T12:27:42.371Z,95903.80
2018-07-25T12:30:12.661Z,95911.52
2018-07-25T12:32:42.943Z,95898.91
2018-07-25T12:35:13.259Z,95887.48
2018-07-25T12:37:43.627Z,95890.81
2018-07-25T12:40:14.243Z,95891.32
2018-07-25T12:42:44.910Z,95894.55
2018-07-25T12:45:15.519Z,95899.41
2018-07-25T12:47:45.845Z,95905.72
2018-07-25T12:50:16.081Z,95888.83
2018-07-25T12:52:46.316Z,95882.84
2018-07-25T12:55:16.625Z,95883.21
2018-07-25T12:57:46.887Z,95887.36
2018-07-25T13:00:17.163Z,95881.41
2018-07-25T13:02:47.521Z,95886.80
2018-07-25T13:05:17.721Z,95887.58
2018-07-25T13:07:47.976Z,95892.73
2018-07-25T13:10:18.281Z,95877.27
2018-07-25T13:12:48.508Z,95870.20
2018-07-25T13:15:18.710Z,95877.36
2018-07-25T13:17:48.973Z,95867.50
2018-07-25T13:20:19.505Z,95863.20
2018-07-25T13:22:50.532Z,95864.58
2018-07-25T13:25:20.735Z,95867.45
2018-07-25T13:27:51.250Z,95859.30
2018-07-25T13:30:21.695Z,95858.95
2018-07-25T13:32:52.561Z,95862.34
2018-07-25T13:35:23.471Z,95844.17
2018-07-25T13:37:53.738Z,95861.70
2018-07-25T13:40:24.025Z,95853.02
2018-07-25T13:42:54.354Z,95848.18
2018-07-25T13:45:24.677Z,95843.39
2018-07-25T13:47:54.901Z,95845.13
2018-07-25T13:50:25.220Z,95862.15
2018-07-25T13:52:55.857Z,95857.64
2018-07-25T13:55:26.142Z,95847.75
2018-07-25T13:57:56.393Z,95849.73
2018-07-25T14:00:26.715Z,95848.88
2018-07-25T14:02:56.967Z,95837.00
2018-07-25T14:05:27.281Z,95835.20
2018-07-25T14:07:57.517Z,95830.80
2018-07-25T14:10:27.827Z,95832.70
2018-07-25T14:12:58.139Z,95821.45
2018-07-25T14:15:28.395Z,95820.34
2018-07-25T14:17:58.754Z,95820.77
2018-07-25T14:20:28.971Z,95812.67
2018-07-25T14:22:59.255Z,95820.31
2018-07-25T14:25:29.627Z,95814.73
2018-07-25T14:28:00.022Z,95813.88
2018-07-25T14:30:30.496Z,95807.34
2018-07-25T14:33:00.505Z,95822.84
2018-07-25T14:35:31.293Z,95810.24
2018-07-25T14:38:01.604Z,95808.36
2018-07-25T14:40:31.970Z,95796.31
2018-07-25T14:43:02.290Z,95800.13
2018-07-25T14:45:32.605Z,95800.66
2018-07-25T14:48:03.018Z,95802.56
2018-07-25T14:50:33.357Z,95806.00
2018-07-25T14:53:03.927Z,95802.42
2018-07-25T14:55:34.284Z,95792.08
2018-07-25T14:58:04.548Z,95800.04
2018-07-25T15:00:35.232Z,95794.56
2018-07-25T15:03:05.619Z,95811.75
2018-07-25T15:05:35.908Z,95798.80
2018-07-25T15:08:06.852Z,95803.09
2018-07-25T15:10:37.162Z,95800.75
2018-07-25T15:13:07.816Z,95804.97
2018-07-25T15:15:38.052Z,95788.52
2018-07-25T15:18:08.415Z,95804.09
2018-07-25T15:20:38.826Z,95809.89
2018-07-25T15:23:09.378Z,95814.49
2018-07-25T15:25:40.003Z,95800.27
2018-07-25T15:28:10.250Z,95800.59
2018-07-25T15:30:40.482Z,95790.52
2018-07-25T15:33:10.786Z,95805.41
2018-07-25T15:35:41.167Z,95790.27
2018-07-25T15:38:11.781Z,95801.22
2018-07-25T15:40:42.072Z,95793.19
2018-07-25T15:43:12.306Z,95807.53
2018-07-25T15:45:42.928Z,95788.16
2018-07-25T15:48:13.607Z,95782.02
2018-07-25T15:50:44.292Z,95793.13
2018-07-25T15:53:14.492Z,95783.75
2018-07-25T15:55:44.659Z,95782.30
2018-07-25T15:58:14.622Z,95781.53
2018-07-25T16:00:45.223Z,95771.47
2018-07-25T16:03:15.500Z,95795.89
2018-07-25T16:05:45.743Z,95782.52
2018-07-25T16:08:16.034Z,95786.59
2018-07-25T16:10:46.382Z,95779.16
2018-07-25T16:13:16.675Z,95778.56
2018-07-25T16:15:46.944Z,95776.86
2018-07-25T16:18:17.608Z,95768.67
2018-07-25T16:20:47.964Z,95770.30
2018-07-25T16:23:18.794Z,95771.08
2018-07-25T16:25:49.086Z,95773.66
2018-07-25T16:28:19.396Z,95769.02
2018-07-25T16:30:49.705Z,95765.04
2018-07-25T16:33:19.974Z,95762.38
2018-07-25T16:35:50.402Z,95766.91
2018-07-25T16:38:20.912Z,95767.03
2018-07-25T16:40:51.207Z,95762.73
2018-07-25T16:43:21.792Z,95767.26
2018-07-25T16:45:52.080Z,95764.36
2018-07-25T16:48:22.348Z,95772.24
2018-07-25T16:50:52.630Z,95773.98
2018-07-25T16:53:23.478Z,95770.78
2018-07-25T16:55:53.762Z,95769.36
2018-07-25T16:58:24.026Z,95771.25
2018-07-25T17:00:54.758Z,95775.23
2018-07-25T17:03:25.124Z,95775.33
2018-07-25T17:05:55.426Z,95771.59
2018-07-25T17:08:25.750Z,95770.78
2018-07-25T17:10:56.104Z,95773.47
2018-07-25T17:13:26.651Z,95766.95
2018-07-25T17:15:56.960Z,95778.75
2018-07-25T17:18:27.566Z,95771.38
2018-07-25T17:20:58.482Z,95773.95
2018-07-25T17:23:28.774Z,95770.61
2018-07-25T17:25:59.095Z,95780.59
2018-07-25T17:28:29.365Z,95780.72
2018-07-25T17:30:59.600Z,95779.41
2018-07-25T17:33:30.211Z,95782.28
2018-07-25T17:36:00.364Z,95780.97
2018-07-25T17:38:31.043Z,95780.20
2018-07-25T17:41:01.383Z,95784.63
2018-07-25T17:43:32.018Z,95792.70
2018-07-25T17:46:02.111Z,95795.23
2018-07-25T17:48:32.332Z,95791.66
2018-07-25T17:51:02.584Z,95797.08
2018-07-25T17:53:33.161Z,95793.70
2018-07-25T17:56:03.526Z,95799.22
2018-07-25T17:58:33.868Z,95799.31
2018-07-25T18:01:04.204Z,95797.16
2018-07-25T18:03:34.977Z,95801.53
2018-07-25T18:06:05.488Z,95805.52
2018-07-25T18:08:36.025Z,95806.33
2018-07-25T18:11:06.280Z,95804.20
2018-07-25T18:13:41.668Z,95806.50
2018-07-25T18:16:11.932Z,95801.06
2018-07-25T18:18:42.572Z,95804.65
2018-07-25T18:21:13.175Z,95804.67
2018-07-25T18:23:43.804Z,95807.98
2018-07-25T18:26:14.127Z,95808.00
2018-07-25T18:28:44.416Z,95814.35
2018-07-25T18:31:15.030Z,95812.61
2018-07-25T18:33:45.540Z,95816.67
2018-07-25T18:36:16.766Z,95815.17
2018-07-25T18:38:47.468Z,95809.42
2018-07-25T18:41:17.924Z,95810.97
2018-07-25T18:43:48.400Z,95810.69
2018-07-25T18:46:19.397Z,95814.78
2018-07-25T18:48:50.324Z,95814.02
2018-07-25T18:51:20.696Z,95811.31
2018-07-25T18:53:52.259Z,95815.91
2018-07-25T18:56:22.732Z,95811.55
2018-07-25T18:58:53.148Z,95818.29
2018-07-25T19:01:23.282Z,95822.08
2018-07-25T19:03:53.706Z,95823.34
2018-07-25T19:06:24.788Z,95826.52
2018-07-25T19:08:55.746Z,95828.71
2018-07-25T19:11:26.166Z,95826.01
2018-07-25T19:14:02.094Z,95828.83
2018-07-25T19:16:32.744Z,95826.69
2018-07-25T19:19:03.394Z,95830.91
2018-07-25T19:21:34.049Z,95836.47
2018-07-25T19:24:04.424Z,95837.81
2018-07-25T19:26:34.526Z,95845.28
2018-07-25T19:29:05.194Z,95849.64
2018-07-25T19:31:35.914Z,95849.34
2018-07-25T19:34:06.614Z,95860.38
2018-07-25T19:36:38.068Z,95858.28
2018-07-25T19:39:10.389Z,95855.07
2018-07-25T19:41:41.003Z,95859.27
2018-07-25T19:44:11.383Z,95855.56
2018-07-25T19:46:41.372Z,95858.53
2018-07-25T19:49:12.397Z,95861.90
2018-07-25T19:51:42.811Z,95867.29
2018-07-25T19:54:13.548Z,95870.17
2018-07-25T19:56:44.615Z,95869.55
2018-07-25T19:59:14.919Z,95863.97
2018-07-25T20:01:45.339Z,95868.06
2018-07-25T20:04:15.822Z,95863.88
2018-07-25T20:06:46.229Z,95871.73
2018-07-25T20:09:16.735Z,95866.56
2018-07-25T20:11:47.741Z,95870.66
2018-07-25T20:14:23.260Z,95874.72
2018-07-25T20:16:55.120Z,95873.50
2018-07-25T20:19:25.647Z,95874.34
2018-07-25T20:21:55.704Z,95871.56
2018-07-25T20:24:26.297Z,95867.26
2018-07-25T20:26:56.334Z,95873.88
2018-07-25T20:29:26.990Z,95866.52
2018-07-25T20:32:02.247Z,95875.39
2018-07-25T20:34:32.643Z,95875.30
2018-07-25T20:37:03.630Z,95881.01
2018-07-25T20:39:34.583Z,95883.11
2018-07-25T20:42:05.371Z,95885.36
2018-07-25T20:44:35.877Z,95877.74
2018-07-25T20:47:06.239Z,95882.34
2018-07-25T20:49:36.690Z,95886.61
2018-07-25T20:52:07.815Z,95884.38
2018-07-25T20:54:38.358Z,95889.05
2018-07-25T20:57:09.240Z,95889.61
2018-07-25T20:59:39.812Z,95897.84
2018-07-25T21:02:10.758Z,95900.13
2018-07-25T21:04:41.178Z,95902.23
2018-07-25T21:07:11.786Z,95898.31
2018-07-25T21:09:42.167Z,95899.00
2018-07-25T21:12:12.574Z,95909.34
2018-07-25T21:14:43.055Z,95898.77
2018-07-25T21:17:13.783Z,95911.38
2018-07-25T21:19:44.159Z,95913.64
2018-07-25T21:22:14.588Z,95909.75
2018-07-25T21:24:45.345Z,95909.66
2018-07-25T21:27:15.706Z,95905.88
2018-07-25T21:29:46.096Z,95916.30
2018-07-25T21:32:16.503Z,95913.14
2018-07-25T21:34:46.992Z,95914.96
2018-07-25T21:37:17.526Z,95910.80
2018-07-25T21:39:47.962Z,95920.45
2018-07-25T21:42:18.405Z,95917.64
2018-07-25T21:44:48.907Z,95918.80
2018-07-25T21:47:18.918Z,95921.33
2018-07-25T21:49:49.306Z,95927.00
2018-07-25T21:52:19.864Z,95926.66
2018-07-25T21:54:50.483Z,95927.05
2018-07-25T21:57:20.941Z,95926.00
2018-07-25T21:59:51.341Z,95927.20
2018-07-25T22:02:21.785Z,95919.24
2018-07-25T22:04:52.193Z,95923.36
2018-07-25T22:07:22.692Z,95927.99
2018-07-25T22:09:53.050Z,95925.92
2018-07-25T22:12:23.650Z,95928.53
2018-07-25T22:14:54.034Z,95926.70
2018-07-25T22:17:24.456Z,95928.10
2018-07-25T22:19:55.698Z,95929.44
2018-07-25T22:22:26.064Z,95938.12
2018-07-25T22:24:56.411Z,95923.70
2018-07-25T22:27:26.883Z,95917.28
2018-07-25T22:29:57.295Z,95918.14
2018-07-25T22:32:27.756Z,95918.95
2018-07-25T22:34:58.148Z,95917.07
2018-07-25T22:37:29.215Z,95912.77
2018-07-25T22:39:59.602Z,95906.24
2018-07-25T22:42:29.996Z,95910.73
2018-07-25T22:45:00.549Z,95909.67
2018-07-25T22:47:30.931Z,95912.25
2018-07-25T22:50:01.474Z,95907.87
2018-07-25T22:52:31.825Z,95912.41
2018-07-25T22:55:02.190Z,95898.75
2018-07-25T22:57:33.342Z,95907.67
2018-07-25T23:00:03.808Z,95908.57
2018-07-25T23:02:34.385Z,95900.03
2018-07-25T23:05:04.563Z,95903.13
2018-07-25T23:07:34.928Z,95901.89
2018-07-25T23:10:06.096Z,95900.97
2018-07-25T23:15:00.747Z,95897.12
2018-07-25T23:17:31.158Z,95898.34
2018-07-25T23:20:01.514Z,95902.06
2018-07-25T23:22:42.734Z,95897.61
2018-07-25T23:25:14.723Z,95895.18
2018-07-25T23:27:45.109Z,95897.23
2018-07-25T23:30:16.142Z,95892.17
2018-07-25T23:32:46.530Z,95887.36
2018-07-25T23:35:17.928Z,95889.69
2018-07-25T23:37:48.758Z,95892.81
2018-07-25T23:40:19.575Z,95892.94
2018-07-25T23:42:50.409Z,95895.05
2018-07-25T23:45:20.783Z,95894.28
2018-07-25T23:47:51.397Z,95893.19
2018-07-25T23:50:21.773Z,95888.19
2018-07-25T23:52:52.155Z,95886.69
2018-07-25T23:55:22.539Z,95886.55
2018-07-25T23:57:53.243Z,95892.09
